createdAt,value
2023-03-27T00:00:16.503Z,70.57
2023-03-27T00:02:43.987Z,69.88
2023-03-27T00:05:11.100Z,70.32
2023-03-27T00:07:41.374Z,69.98
2023-03-27T00:10:12.887Z,67.64
2023-03-27T00:12:39.874Z,66.07
2023-03-27T00:15:08.024Z,65.75
2023-03-27T00:17:35.178Z,65.53
2023-03-27T00:20:05.600Z,65.28
2023-03-27T00:22:32.648Z,67.29
2023-03-27T00:24:59.811Z,66.77
2023-03-27T00:27:26.779Z,65.18
2023-03-27T00:29:54.104Z,65.08
2023-03-27T00:32:21.189Z,64.42
2023-03-27T00:34:48.139Z,65.62
2023-03-27T00:37:16.405Z,65.85
2023-03-27T00:39:43.910Z,65.45
2023-03-27T00:42:15.093Z,65.40
2023-03-27T00:44:42.664Z,64.99
2023-03-27T00:47:12.916Z,65.12
2023-03-27T00:50:48.788Z,65.91
2023-03-27T00:53:21.332Z,66.43
2023-03-27T00:55:51.632Z,66.52
2023-03-27T00:58:28.811Z,65.65
2023-03-27T01:00:57.512Z,65.83
2023-03-27T01:03:27.832Z,65.58
2023-03-27T01:05:57.834Z,65.18
2023-03-27T01:08:27.429Z,64.07
2023-03-27T01:11:26.599Z,64.13
2023-03-27T01:14:33.159Z,65.11
2023-03-27T01:17:26.466Z,65.87
2023-03-27T01:20:21.177Z,66.48
2023-03-27T01:23:35.961Z,66.21
2023-03-27T01:26:36.195Z,66.89
2023-03-27T01:29:25.342Z,67.56
2023-03-27T01:32:14.363Z,66.67
2023-03-27T01:35:01.297Z,63.54
2023-03-27T01:37:51.780Z,63.10
2023-03-27T01:40:47.706Z,62.48
2023-03-27T01:43:22.808Z,62.85
2023-03-27T01:46:26.070Z,62.02
2023-03-27T01:48:59.479Z,62.85
2023-03-27T01:51:39.792Z,62.30
2023-03-27T01:54:35.925Z,61.91
2023-03-27T01:57:24.924Z,60.60
2023-03-27T02:00:17.486Z,60.90
2023-03-27T02:02:51.750Z,60.36
2023-03-27T02:05:28.226Z,60.96
2023-03-27T02:07:59.790Z,61.54
2023-03-27T02:10:34.150Z,60.41
2023-03-27T02:13:18.535Z,61.02
2023-03-27T02:15:49.317Z,60.28
2023-03-27T02:18:29.155Z,60.77
2023-03-27T02:20:56.464Z,60.51
2023-03-27T02:23:23.676Z,60.29
2023-03-27T02:25:54.368Z,60.08
2023-03-27T02:28:42.972Z,59.19
2023-03-27T02:31:35.168Z,59.09
2023-03-27T02:34:06.080Z,59.95
2023-03-27T02:36:55.106Z,60.66
2023-03-27T02:39:49.894Z,61.57
2023-03-27T02:42:30.953Z,61.67
2023-03-27T02:45:15.929Z,62.08
2023-03-27T02:47:52.052Z,60.27
2023-03-27T02:50:25.549Z,60.98
2023-03-27T02:53:00.331Z,60.14
2023-03-27T02:55:36.130Z,59.57
2023-03-27T03:01:55.379Z,58.91
2023-03-27T03:04:31.492Z,59.40
2023-03-27T03:07:11.602Z,59.73
2023-03-27T03:09:41.305Z,59.62
2023-03-27T03:12:09.485Z,58.72
2023-03-27T03:14:44.348Z,57.85
2023-03-27T03:17:12.999Z,57.90
2023-03-27T03:19:40.315Z,61.11
2023-03-27T03:22:08.560Z,59.10
2023-03-27T03:24:37.554Z,58.07
2023-03-27T03:27:05.791Z,58.03
2023-03-27T03:29:43.861Z,59.07
2023-03-27T03:32:16.178Z,58.84
2023-03-27T03:34:48.105Z,56.82
2023-03-27T03:37:15.988Z,55.82
2023-03-27T03:39:43.106Z,56.08
2023-03-27T03:42:22.785Z,55.52
2023-03-27T03:44:52.308Z,54.88
2023-03-27T03:48:30.114Z,54.11
2023-03-27T03:50:57.546Z,54.21
2023-03-27T03:53:24.881Z,54.17
2023-03-27T03:55:53.443Z,54.78
2023-03-27T03:58:20.828Z,54.81
2023-03-27T04:01:04.823Z,54.71
2023-03-27T04:03:39.279Z,55.69
2023-03-27T04:06:08.074Z,55.87
2023-03-27T04:08:35.446Z,55.46
2023-03-27T04:11:02.574Z,55.37
2023-03-27T04:14:02.025Z,55.74
2023-03-27T04:16:35.188Z,55.04
2023-03-27T04:19:10.558Z,55.66
2023-03-27T04:21:42.406Z,55.91
2023-03-27T04:24:14.206Z,56.31
2023-03-27T04:26:48.090Z,58.00
2023-03-27T04:29:15.050Z,60.43
2023-03-27T04:32:00.550Z,62.11
2023-03-27T04:34:40.661Z,63.99
2023-03-27T04:37:14.719Z,65.28
2023-03-27T04:39:54.121Z,66.53
2023-03-27T04:42:23.933Z,68.53
2023-03-27T04:44:52.738Z,69.47
2023-03-27T04:47:20.566Z,70.12
2023-03-27T04:49:51.276Z,71.21
2023-03-27T04:52:22.693Z,69.59
2023-03-27T04:54:49.945Z,69.77
2023-03-27T04:57:19.373Z,67.49
2023-03-27T04:59:49.160Z,66.70
2023-03-27T05:02:34.624Z,65.89
2023-03-27T05:05:23.440Z,65.08
2023-03-27T05:07:52.040Z,64.75
2023-03-27T05:10:22.542Z,64.38
2023-03-27T05:12:52.981Z,64.54
2023-03-27T05:15:21.174Z,65.06
2023-03-27T05:17:53.379Z,65.03
2023-03-27T05:20:23.735Z,63.97
2023-03-27T05:22:55.391Z,63.46
2023-03-27T05:25:27.344Z,63.61
2023-03-27T05:27:55.383Z,64.05
2023-03-27T05:30:27.028Z,63.73
2023-03-27T05:33:29.395Z,62.94
2023-03-27T05:35:58.556Z,61.85
2023-03-27T05:38:26.451Z,61.97
2023-03-27T05:41:42.481Z,62.48
2023-03-27T05:44:09.851Z,62.21
2023-03-27T05:46:42.768Z,62.90
2023-03-27T05:49:22.525Z,62.74
2023-03-27T05:51:55.348Z,61.98
2023-03-27T05:54:22.500Z,61.71
2023-03-27T05:57:08.895Z,61.65
2023-03-27T05:59:37.943Z,61.73
2023-03-27T06:02:21.076Z,62.07
2023-03-27T06:04:56.108Z,61.94
2023-03-27T06:07:32.503Z,61.80
2023-03-27T06:10:13.157Z,61.84
2023-03-27T06:12:48.664Z,60.68
2023-03-27T06:15:26.534Z,61.80
2023-03-27T06:18:14.831Z,61.96
2023-03-27T06:20:42.832Z,61.15
2023-03-27T06:23:10.015Z,61.24
2023-03-27T06:25:39.449Z,61.46
2023-03-27T06:28:09.649Z,61.36
2023-03-27T06:30:44.115Z,61.84
2023-03-27T06:33:43.811Z,62.37
2023-03-27T06:36:25.227Z,61.77
2023-03-27T06:38:54.479Z,62.18
2023-03-27T06:41:21.936Z,62.55
2023-03-27T06:44:07.636Z,62.60
2023-03-27T06:46:47.771Z,63.57
2023-03-27T06:49:21.450Z,63.66
2023-03-27T06:51:48.737Z,62.25
2023-03-27T06:54:16.572Z,63.01
2023-03-27T06:56:50.726Z,63.18
2023-03-27T06:59:22.174Z,62.96
2023-03-27T07:01:55.121Z,61.81
2023-03-27T07:04:25.358Z,62.39
2023-03-27T07:07:06.232Z,62.23
2023-03-27T07:09:39.715Z,61.92
2023-03-27T07:12:11.970Z,62.57
2023-03-27T07:14:41.603Z,61.77
2023-03-27T07:17:09.615Z,61.94
2023-03-27T07:20:04.059Z,61.86
2023-03-27T07:22:31.357Z,60.00
2023-03-27T07:25:05.274Z,59.24
2023-03-27T07:27:39.829Z,58.93
2023-03-27T07:30:09.293Z,57.70
2023-03-27T07:32:37.880Z,57.40
2023-03-27T07:35:08.697Z,56.83
2023-03-27T07:37:56.200Z,57.30
2023-03-27T07:40:50.442Z,57.26
2023-03-27T07:43:29.498Z,57.00
2023-03-27T07:45:58.263Z,57.35
2023-03-27T07:48:27.948Z,57.73
2023-03-27T07:51:10.685Z,56.90
2023-03-27T07:53:41.779Z,56.41
2023-03-27T07:56:35.934Z,56.40
2023-03-27T07:59:21.560Z,55.85
2023-03-27T08:01:52.164Z,56.60
2023-03-27T08:04:21.335Z,55.36
2023-03-27T08:07:08.023Z,56.54
2023-03-27T08:09:37.038Z,56.19
2023-03-27T08:12:07.809Z,55.68
2023-03-27T08:14:40.329Z,56.10
2023-03-27T08:17:18.160Z,54.97
2023-03-27T08:19:48.128Z,55.53
2023-03-27T08:22:16.837Z,56.35
2023-03-27T08:25:08.413Z,55.96
2023-03-27T08:27:35.947Z,55.05
2023-03-27T08:30:04.658Z,55.57
2023-03-27T08:32:35.035Z,54.70
2023-03-27T08:35:07.963Z,56.20
2023-03-27T08:37:35.751Z,55.76
2023-03-27T08:40:28.673Z,56.08
2023-03-27T08:43:23.201Z,54.52
2023-03-27T08:46:05.828Z,53.74
2023-03-27T08:48:43.359Z,53.68
2023-03-27T08:51:19.946Z,54.05
2023-03-27T08:53:54.919Z,53.52
2023-03-27T08:56:27.834Z,53.57
2023-03-27T08:58:55.682Z,52.84
2023-03-27T09:01:36.786Z,53.05
2023-03-27T09:04:36.355Z,54.44
2023-03-27T09:07:15.773Z,55.30
2023-03-27T09:10:09.573Z,55.02
2023-03-27T09:13:04.988Z,54.75
2023-03-27T09:15:43.614Z,52.93
2023-03-27T09:18:47.590Z,51.25
2023-03-27T09:21:38.052Z,50.68
2023-03-27T09:24:18.936Z,50.77
2023-03-27T09:27:18.518Z,49.01
2023-03-27T09:30:16.286Z,49.58
2023-03-27T09:33:13.854Z,51.15
2023-03-27T09:35:44.281Z,51.82
2023-03-27T09:38:35.903Z,52.93
2023-03-27T09:41:11.007Z,52.09
2023-03-27T09:43:49.652Z,52.22
2023-03-27T10:17:07.407Z,53.71
2023-03-27T10:20:00.587Z,54.22
2023-03-27T10:22:31.574Z,51.11
2023-03-27T10:25:01.688Z,49.40
2023-03-27T10:28:13.963Z,49.53
2023-03-27T10:31:28.411Z,50.80
2023-03-27T10:34:29.260Z,50.43
2023-03-27T10:37:31.925Z,51.39
2023-03-27T10:40:24.110Z,50.88
2023-03-27T10:43:01.154Z,50.15
2023-03-27T10:45:28.839Z,50.32
2023-03-27T10:48:02.162Z,50.07
2023-03-27T10:50:44.375Z,51.92
2023-03-27T10:53:33.291Z,52.33
2023-03-27T10:56:16.574Z,53.92
2023-03-27T10:58:52.225Z,53.58
2023-03-27T11:01:28.937Z,52.58
2023-03-27T11:04:00.484Z,52.18
2023-03-27T11:06:33.517Z,52.22
2023-03-27T11:09:05.961Z,52.63
2023-03-27T11:11:46.791Z,52.54
2023-03-27T11:14:44.379Z,51.86
2023-03-27T11:17:21.023Z,52.17
2023-03-27T11:20:44.370Z,52.30
2023-03-27T11:23:24.746Z,53.12
2023-03-27T11:26:13.031Z,52.53
2023-03-27T11:29:09.445Z,52.79
2023-03-27T11:31:57.366Z,53.55
2023-03-27T11:34:54.087Z,53.66
2023-03-27T11:37:57.328Z,53.19
2023-03-27T11:40:43.045Z,53.00
2023-03-27T11:43:13.044Z,53.58
2023-03-27T11:45:44.994Z,53.33
2023-03-27T11:48:36.478Z,53.10
2023-03-27T11:51:16.476Z,53.55
2023-03-27T11:54:04.898Z,53.02
2023-03-27T11:56:54.629Z,54.25
2023-03-27T12:00:02.423Z,56.33
2023-03-27T12:03:02.659Z,57.68
2023-03-27T12:05:49.247Z,58.67
2023-03-27T12:08:21.858Z,60.61
2023-03-27T12:10:54.137Z,59.45
2023-03-27T12:13:55.026Z,63.50
2023-03-27T12:16:37.545Z,62.76
2023-03-27T12:19:46.190Z,62.20
2023-03-27T12:22:35.904Z,62.13
2023-03-27T12:25:50.192Z,60.44
2023-03-27T12:29:23.461Z,59.14
2023-03-27T12:32:12.856Z,57.95
2023-03-27T12:34:53.564Z,57.98
2023-03-27T12:37:32.442Z,57.21
2023-03-27T12:40:01.520Z,55.31
2023-03-27T12:43:24.566Z,53.40
2023-03-27T12:46:29.119Z,52.37
2023-03-27T12:48:57.910Z,52.07
2023-03-27T12:51:39.663Z,52.18
2023-03-27T12:54:31.904Z,51.31
2023-03-27T12:57:17.216Z,52.47
2023-03-27T12:59:47.087Z,52.64
2023-03-27T13:02:42.101Z,53.29
2023-03-27T13:05:26.902Z,53.40
2023-03-27T13:08:29.661Z,54.05
2023-03-27T13:11:37.332Z,55.51
2023-03-27T13:14:57.862Z,55.78
2023-03-27T13:17:41.729Z,56.39
2023-03-27T13:20:10.013Z,56.46
2023-03-27T13:23:03.477Z,57.11
2023-03-27T13:25:46.199Z,57.86
2023-03-27T13:28:25.297Z,57.25
2023-03-27T13:31:02.047Z,57.03
2023-03-27T13:34:07.690Z,57.07
2023-03-27T13:36:35.448Z,57.64
2023-03-27T13:39:06.706Z,58.34
2023-03-27T13:41:45.931Z,58.06
2023-03-27T13:44:56.883Z,58.08
2023-03-27T13:47:33.676Z,57.92
2023-03-27T13:50:19.367Z,58.71
2023-03-27T13:53:16.808Z,58.91
2023-03-27T13:56:43.948Z,58.52
2023-03-27T13:59:43.451Z,58.41
2023-03-27T14:02:55.689Z,58.93
2023-03-27T14:05:46.515Z,59.76
2023-03-27T14:08:40.056Z,59.46
2023-03-27T14:12:11.819Z,58.83
2023-03-27T14:15:16.731Z,58.86
2023-03-27T14:18:10.534Z,59.89
2023-03-27T14:20:45.456Z,59.50
2023-03-27T14:23:24.091Z,59.40
2023-03-27T14:26:05.977Z,59.75
2023-03-27T14:28:59.224Z,60.01
2023-03-27T14:31:35.511Z,61.44
2023-03-27T14:34:12.415Z,62.05
2023-03-27T14:36:42.568Z,62.50
2023-03-27T14:39:31.444Z,62.35
2023-03-27T14:42:17.241Z,62.38
2023-03-27T14:44:48.156Z,62.89
2023-03-27T14:47:18.617Z,62.81
2023-03-27T14:49:50.893Z,62.85
2023-03-27T14:52:35.437Z,62.78
2023-03-27T14:55:22.975Z,63.25
2023-03-27T14:58:11.283Z,65.62
2023-03-27T15:00:41.652Z,64.75
2023-03-27T15:03:16.634Z,65.15
2023-03-27T15:06:02.265Z,65.15
2023-03-27T15:08:37.271Z,65.04
2023-03-27T15:11:39.202Z,65.75
2023-03-27T15:14:18.744Z,66.42
2023-03-27T15:16:58.393Z,66.18
2023-03-27T15:19:32.614Z,67.01
2023-03-27T15:22:07.572Z,67.24
2023-03-27T15:24:43.593Z,67.55
2023-03-27T15:27:25.831Z,69.34
2023-03-27T15:30:25.668Z,68.86
2023-03-27T15:32:56.463Z,69.19
2023-03-27T15:35:40.514Z,68.38
2023-03-27T15:38:11.689Z,68.95
2023-03-27T15:40:43.142Z,70.19
2023-03-27T15:43:13.393Z,70.72
2023-03-27T15:45:47.837Z,71.00
2023-03-27T15:48:23.315Z,70.65
2023-03-27T15:51:01.722Z,70.22
2023-03-27T15:53:34.447Z,70.73
2023-03-27T15:56:07.723Z,71.92
2023-03-27T15:58:48.769Z,72.61
2023-03-27T16:01:20.286Z,72.15
2023-03-27T16:03:48.538Z,72.68
2023-03-27T16:06:26.864Z,72.59
2023-03-27T16:08:55.131Z,72.78
2023-03-27T16:11:49.509Z,73.22
2023-03-27T16:14:33.146Z,72.66
2023-03-27T16:17:10.043Z,72.95
2023-03-27T16:20:07.817Z,73.36
2023-03-27T16:22:37.450Z,73.33
2023-03-27T16:25:09.925Z,73.52
2023-03-27T16:27:58.658Z,73.85
2023-03-27T16:30:32.198Z,74.28
2023-03-27T16:33:00.592Z,73.79
2023-03-27T16:35:32.626Z,74.32
2023-03-27T16:38:00.218Z,74.50
2023-03-27T16:40:27.584Z,74.14
2023-03-27T16:42:54.642Z,73.99
2023-03-27T16:45:21.727Z,74.36
2023-03-27T16:47:53.150Z,74.41
2023-03-27T16:50:24.726Z,76.21
2023-03-27T16:52:51.756Z,74.85
2023-03-27T16:55:19.130Z,73.92
2023-03-27T16:57:49.212Z,74.13
2023-03-27T17:00:16.755Z,74.12
2023-03-27T17:02:44.685Z,74.85
2023-03-27T17:05:12.103Z,75.00
2023-03-27T17:07:41.919Z,74.85
2023-03-27T17:10:10.515Z,75.11
2023-03-27T17:12:38.134Z,77.96
2023-03-27T17:15:05.957Z,76.25
2023-03-27T17:17:33.229Z,76.81
2023-03-27T17:20:00.862Z,75.86
2023-03-27T17:22:30.088Z,75.44
2023-03-27T17:24:58.039Z,75.61
2023-03-27T17:27:28.492Z,76.08
2023-03-27T17:29:58.586Z,75.84
2023-03-27T17:32:27.075Z,75.88
2023-03-27T17:34:54.441Z,75.50
2023-03-27T17:37:22.121Z,74.75
2023-03-27T17:39:49.463Z,74.13
2023-03-27T17:42:16.630Z,73.82
2023-03-27T17:44:45.249Z,73.78
2023-03-27T17:47:13.362Z,73.35
2023-03-27T17:49:41.208Z,71.51
2023-03-27T17:52:11.401Z,71.12
2023-03-27T17:54:39.010Z,72.90
2023-03-27T17:57:06.470Z,72.95
2023-03-27T17:59:33.734Z,72.95
2023-03-27T18:02:01.286Z,71.78
2023-03-27T18:04:29.164Z,74.12
2023-03-27T18:06:56.261Z,77.27
2023-03-27T18:09:23.362Z,77.82
2023-03-27T18:11:50.897Z,77.12
2023-03-27T18:14:18.012Z,76.84
2023-03-27T18:16:45.142Z,77.55
2023-03-27T18:19:13.522Z,78.73
2023-03-27T18:21:40.771Z,80.00
2023-03-27T18:24:08.295Z,80.66
2023-03-27T18:26:35.337Z,80.86
2023-03-27T18:29:02.713Z,81.70
2023-03-27T18:31:30.120Z,83.11
2023-03-27T18:33:57.156Z,83.49
2023-03-27T18:36:24.442Z,84.10
2023-03-27T18:38:52.144Z,84.82
2023-03-27T18:41:19.188Z,85.18
2023-03-27T18:43:46.216Z,85.34
2023-03-27T18:46:17.015Z,84.83
2023-03-27T18:48:46.195Z,85.07
2023-03-27T18:51:13.541Z,85.81
2023-03-27T18:53:41.189Z,85.77
2023-03-27T18:56:08.351Z,87.36
2023-03-27T18:58:36.185Z,88.74
2023-03-27T19:01:09.107Z,90.04
2023-03-27T19:03:37.585Z,90.90
2023-03-27T19:06:07.218Z,91.35
2023-03-27T19:08:37.676Z,91.74
2023-03-27T19:11:06.206Z,91.92
2023-03-27T19:13:51.649Z,93.23
2023-03-27T19:16:30.634Z,93.82
2023-03-27T19:19:16.567Z,94.33
2023-03-27T19:21:53.383Z,94.17
2023-03-27T19:24:40.574Z,95.44
2023-03-27T19:27:08.057Z,95.66
2023-03-27T19:29:51.783Z,95.80
2023-03-27T19:32:18.835Z,96.23
2023-03-27T19:34:46.055Z,96.64
2023-03-27T19:37:13.054Z,97.13
2023-03-27T19:39:40.338Z,97.15
2023-03-27T19:42:07.657Z,97.40
2023-03-27T19:44:38.137Z,97.78
2023-03-27T19:47:07.744Z,97.60
2023-03-27T19:49:34.903Z,97.82
2023-03-27T19:52:20.963Z,97.82
2023-03-27T19:54:48.003Z,97.52
2023-03-27T19:57:15.037Z,98.40
2023-03-27T19:59:42.157Z,97.64
2023-03-27T20:02:12.388Z,97.66
2023-03-27T20:04:39.876Z,98.28
2023-03-27T20:07:10.132Z,98.54
2023-03-27T20:09:37.694Z,98.18
2023-03-27T20:12:06.063Z,98.45
2023-03-27T20:14:33.080Z,98.15
2023-03-27T20:17:00.252Z,97.98
2023-03-27T20:19:30.610Z,98.54
2023-03-27T20:22:00.340Z,98.90
2023-03-27T20:24:29.037Z,99.05
2023-03-27T20:26:59.394Z,99.48
2023-03-27T20:29:26.702Z,99.58
2023-03-27T20:31:54.068Z,99.24
2023-03-27T20:34:22.796Z,99.90
2023-03-27T20:36:53.366Z,99.53
2023-03-27T20:39:54.256Z,99.36
2023-03-27T20:42:23.311Z,99.36
2023-03-27T20:44:58.969Z,99.05
2023-03-27T20:47:26.125Z,99.36
2023-03-27T20:49:53.212Z,99.49
2023-03-27T20:52:22.884Z,99.27
2023-03-27T20:54:50.886Z,98.91
2023-03-27T20:57:21.305Z,99.14
2023-03-27T20:59:48.658Z,99.13
2023-03-27T21:02:17.473Z,99.12
2023-03-27T21:04:44.849Z,99.20
2023-03-27T21:07:12.003Z,99.09
2023-03-27T21:09:39.174Z,98.69
2023-03-27T21:12:07.060Z,98.37
2023-03-27T21:14:34.508Z,97.60
2023-03-27T21:17:01.766Z,96.85
2023-03-27T21:19:28.851Z,96.17
2023-03-27T21:21:56.097Z,95.09
2023-03-27T21:24:23.153Z,94.42
2023-03-27T21:26:50.149Z,93.35
2023-03-27T21:29:17.392Z,94.10
2023-03-27T21:31:44.477Z,94.09
2023-03-27T21:34:11.560Z,93.48
2023-03-27T21:36:38.913Z,93.77
2023-03-27T21:39:06.103Z,93.37
2023-03-27T21:41:33.272Z,93.17
2023-03-27T21:44:00.427Z,93.59
2023-03-27T21:46:27.426Z,94.41
2023-03-27T21:48:54.513Z,94.39
2023-03-27T21:51:21.529Z,94.42
2023-03-27T21:53:48.731Z,95.08
2023-03-27T21:56:15.827Z,94.94
2023-03-27T21:58:42.792Z,94.80
2023-03-27T22:01:10.011Z,94.87
2023-03-27T22:03:37.060Z,95.12
2023-03-27T22:06:11.506Z,95.79
2023-03-27T22:08:40.639Z,95.25
2023-03-27T22:11:07.687Z,95.18
2023-03-27T22:13:36.679Z,95.89
2023-03-27T22:16:12.611Z,95.84
2023-03-27T22:18:40.868Z,96.27
2023-03-27T22:21:16.774Z,96.93
2023-03-27T22:23:44.215Z,96.41
2023-03-27T22:26:11.640Z,96.72
2023-03-27T22:28:38.715Z,96.70
2023-03-27T22:31:06.060Z,96.88
2023-03-27T22:33:33.299Z,97.04
2023-03-27T22:36:00.586Z,96.57
2023-03-27T22:38:31.664Z,96.53
2023-03-27T22:40:59.808Z,96.67
2023-03-27T22:43:28.991Z,96.95
2023-03-27T22:45:56.256Z,96.92
2023-03-27T22:48:23.472Z,96.76
2023-03-27T22:50:57.801Z,96.60
2023-03-27T22:53:25.794Z,95.94
2023-03-27T22:55:54.666Z,96.06
2023-03-27T22:58:22.381Z,96.52
2023-03-27T23:00:51.120Z,96.97
2023-03-27T23:03:19.206Z,96.66
2023-03-27T23:05:49.171Z,96.20
2023-03-27T23:08:17.585Z,95.78
2023-03-27T23:10:45.414Z,96.47
2023-03-27T23:13:13.236Z,96.52
2023-03-27T23:15:40.314Z,96.08
2023-03-27T23:18:07.417Z,95.41
2023-03-27T23:20:34.425Z,95.59
2023-03-27T23:23:01.555Z,95.71
2023-03-27T23:25:28.513Z,95.75
2023-03-27T23:27:55.467Z,96.21
2023-03-27T23:30:22.471Z,95.95
2023-03-27T23:32:49.560Z,95.88
2023-03-27T23:35:17.163Z,94.55
2023-03-27T23:37:44.116Z,93.10
2023-03-27T23:40:11.218Z,90.69
2023-03-27T23:42:38.240Z,88.90
2023-03-27T23:45:05.955Z,88.88
2023-03-27T23:47:32.993Z,88.85
2023-03-27T23:49:59.954Z,89.05
2023-03-27T23:52:26.973Z,89.22
2023-03-27T23:54:53.998Z,90.89
2023-03-27T23:57:21.247Z,91.15
2023-03-27T23:59:48.244Z,91.22
